sensor_id;sensor_type;location;lat;lon;timestamp;P1;durP1;ratioP1;P2;durP2;ratioP2
67272;SDS011;54190;49.770;9.250;2024-03-02T00:02:12;10.90;;;6.37;;
67272;SDS011;54190;49.770;9.250;2024-03-02T00:04:38;9.60;;;6.00;;
67272;SDS011;54190;49.770;9.250;2024-03-02T00:07:03;9.10;;;6.27;;
67272;SDS011;54190;49.770;9.250;2024-03-02T00:09:29;11.93;;;6.53;;
67272;SDS011;54190;49.770;9.250;2024-03-02T00:11:55;12.90;;;6.80;;
67272;SDS011;54190;49.770;9.250;2024-03-02T00:14:21;12.80;;;6.90;;
67272;SDS011;54190;49.770;9.250;2024-03-02T00:16:49;11.80;;;6.83;;
67272;SDS011;54190;49.770;9.250;2024-03-02T00:19:16;16.00;;;7.37;;
67272;SDS011;54190;49.770;9.250;2024-03-02T00:21:42;9.53;;;6.33;;
67272;SDS011;54190;49.770;9.250;2024-03-02T00:24:17;10.27;;;7.17;;
67272;SDS011;54190;49.770;9.250;2024-03-02T00:26:55;13.03;;;7.10;;
67272;SDS011;54190;49.770;9.250;2024-03-02T00:29:21;12.67;;;6.90;;
67272;SDS011;54190;49.770;9.250;2024-03-02T00:31:47;11.50;;;6.80;;
67272;SDS011;54190;49.770;9.250;2024-03-02T00:34:13;11.40;;;6.27;;
67272;SDS011;54190;49.770;9.250;2024-03-02T00:36:41;11.37;;;6.30;;
67272;SDS011;54190;49.770;9.250;2024-03-02T00:39:07;13.07;;;6.93;;
67272;SDS011;54190;49.770;9.250;2024-03-02T00:41:33;15.50;;;7.10;;
67272;SDS011;54190;49.770;9.250;2024-03-02T00:44:02;12.07;;;7.10;;
67272;SDS011;54190;49.770;9.250;2024-03-02T00:46:37;12.53;;;7.90;;
67272;SDS011;54190;49.770;9.250;2024-03-02T00:49:05;12.20;;;6.93;;
67272;SDS011;54190;49.770;9.250;2024-03-02T00:51:37;10.10;;;6.00;;
67272;SDS011;54190;49.770;9.250;2024-03-02T00:54:04;16.03;;;7.53;;
67272;SDS011;54190;49.770;9.250;2024-03-02T00:56:34;13.43;;;6.70;;
67272;SDS011;54190;49.770;9.250;2024-03-02T00:59:00;11.87;;;6.10;;
67272;SDS011;54190;49.770;9.250;2024-03-02T01:01:26;11.47;;;7.03;;
67272;SDS011;54190;49.770;9.250;2024-03-02T01:03:52;10.97;;;7.17;;
67272;SDS011;54190;49.770;9.250;2024-03-02T01:06:18;11.70;;;7.07;;
67272;SDS011;54190;49.770;9.250;2024-03-02T01:08:44;11.63;;;6.83;;
67272;SDS011;54190;49.770;9.250;2024-03-02T01:11:10;12.37;;;7.57;;
67272;SDS011;54190;49.770;9.250;2024-03-02T01:13:35;10.10;;;7.00;;
67272;SDS011;54190;49.770;9.250;2024-03-02T01:16:01;12.20;;;7.67;;
67272;SDS011;54190;49.770;9.250;2024-03-02T01:18:27;11.63;;;6.83;;
67272;SDS011;54190;49.770;9.250;2024-03-02T01:20:53;11.43;;;6.97;;
67272;SDS011;54190;49.770;9.250;2024-03-02T01:23:24;9.80;;;7.00;;
67272;SDS011;54190;49.770;9.250;2024-03-02T01:25:50;12.53;;;7.33;;
67272;SDS011;54190;49.770;9.250;2024-03-02T01:28:17;11.50;;;6.93;;
67272;SDS011;54190;49.770;9.250;2024-03-02T01:30:42;10.20;;;6.53;;
67272;SDS011;54190;49.770;9.250;2024-03-02T01:33:08;10.80;;;6.30;;
67272;SDS011;54190;49.770;9.250;2024-03-02T01:35:34;11.60;;;6.93;;
67272;SDS011;54190;49.770;9.250;2024-03-02T01:38:00;12.60;;;6.87;;
67272;SDS011;54190;49.770;9.250;2024-03-02T01:40:26;13.37;;;6.90;;
67272;SDS011;54190;49.770;9.250;2024-03-02T01:42:55;12.60;;;7.10;;
67272;SDS011;54190;49.770;9.250;2024-03-02T01:45:23;9.47;;;5.87;;
67272;SDS011;54190;49.770;9.250;2024-03-02T01:47:49;11.17;;;6.80;;
67272;SDS011;54190;49.770;9.250;2024-03-02T01:50:14;11.90;;;7.07;;
67272;SDS011;54190;49.770;9.250;2024-03-02T01:52:40;9.70;;;6.07;;
67272;SDS011;54190;49.770;9.250;2024-03-02T01:55:06;8.97;;;5.83;;
67272;SDS011;54190;49.770;9.250;2024-03-02T01:57:33;12.57;;;7.33;;
67272;SDS011;54190;49.770;9.250;2024-03-02T02:00:01;8.17;;;6.27;;
67272;SDS011;54190;49.770;9.250;2024-03-02T02:02:36;12.40;;;6.53;;
67272;SDS011;54190;49.770;9.250;2024-03-02T02:05:02;13.23;;;6.53;;
67272;SDS011;54190;49.770;9.250;2024-03-02T02:07:29;10.57;;;6.67;;
67272;SDS011;54190;49.770;9.250;2024-03-02T02:09:54;11.93;;;5.40;;
67272;SDS011;54190;49.770;9.250;2024-03-02T02:12:20;9.60;;;5.33;;
67272;SDS011;54190;49.770;9.250;2024-03-02T02:14:49;10.37;;;6.47;;
67272;SDS011;54190;49.770;9.250;2024-03-02T02:17:15;12.80;;;6.80;;
67272;SDS011;54190;49.770;9.250;2024-03-02T02:19:41;12.10;;;7.33;;
67272;SDS011;54190;49.770;9.250;2024-03-02T02:22:08;11.60;;;7.30;;
67272;SDS011;54190;49.770;9.250;2024-03-02T02:24:39;10.70;;;6.90;;
67272;SDS011;54190;49.770;9.250;2024-03-02T02:27:08;13.93;;;7.50;;
67272;SDS011;54190;49.770;9.250;2024-03-02T02:29:35;11.57;;;6.70;;
67272;SDS011;54190;49.770;9.250;2024-03-02T02:32:01;13.13;;;7.77;;
67272;SDS011;54190;49.770;9.250;2024-03-02T02:34:27;13.40;;;7.60;;
67272;SDS011;54190;49.770;9.250;2024-03-02T02:36:53;13.97;;;7.37;;
67272;SDS011;54190;49.770;9.250;2024-03-02T02:39:19;12.80;;;7.43;;
67272;SDS011;54190;49.770;9.250;2024-03-02T02:41:47;9.40;;;6.60;;
67272;SDS011;54190;49.770;9.250;2024-03-02T02:44:13;14.67;;;7.63;;
67272;SDS011;54190;49.770;9.250;2024-03-02T02:46:39;11.70;;;7.60;;
67272;SDS011;54190;49.770;9.250;2024-03-02T02:49:05;13.97;;;7.40;;
67272;SDS011;54190;49.770;9.250;2024-03-02T02:51:31;14.87;;;7.63;;
67272;SDS011;54190;49.770;9.250;2024-03-02T02:53:57;17.63;;;8.40;;
67272;SDS011;54190;49.770;9.250;2024-03-02T02:56:23;16.20;;;9.60;;
67272;SDS011;54190;49.770;9.250;2024-03-02T02:58:49;16.40;;;8.60;;
67272;SDS011;54190;49.770;9.250;2024-03-02T03:01:15;17.03;;;9.50;;
67272;SDS011;54190;49.770;9.250;2024-03-02T03:03:44;19.10;;;9.77;;
67272;SDS011;54190;49.770;9.250;2024-03-02T03:06:10;17.10;;;8.23;;
67272;SDS011;54190;49.770;9.250;2024-03-02T03:08:36;16.63;;;9.47;;
67272;SDS011;54190;49.770;9.250;2024-03-02T03:11:02;10.30;;;6.40;;
67272;SDS011;54190;49.770;9.250;2024-03-02T03:13:28;15.23;;;7.83;;
67272;SDS011;54190;49.770;9.250;2024-03-02T03:15:54;15.67;;;8.67;;
67272;SDS011;54190;49.770;9.250;2024-03-02T03:18:19;15.23;;;8.13;;
67272;SDS011;54190;49.770;9.250;2024-03-02T03:20:45;17.07;;;8.43;;
67272;SDS011;54190;49.770;9.250;2024-03-02T03:23:11;13.70;;;7.40;;
67272;SDS011;54190;49.770;9.250;2024-03-02T03:25:40;15.77;;;8.10;;
67272;SDS011;54190;49.770;9.250;2024-03-02T03:28:07;12.10;;;7.67;;
67272;SDS011;54190;49.770;9.250;2024-03-02T03:30:36;13.13;;;8.30;;
67272;SDS011;54190;49.770;9.250;2024-03-02T03:33:02;13.90;;;8.20;;
67272;SDS011;54190;49.770;9.250;2024-03-02T03:35:28;14.17;;;7.70;;
67272;SDS011;54190;49.770;9.250;2024-03-02T03:37:53;15.67;;;8.73;;
67272;SDS011;54190;49.770;9.250;2024-03-02T03:40:19;16.63;;;8.10;;
67272;SDS011;54190;49.770;9.250;2024-03-02T03:42:45;17.77;;;8.90;;
67272;SDS011;54190;49.770;9.250;2024-03-02T03:45:10;14.80;;;8.57;;
67272;SDS011;54190;49.770;9.250;2024-03-02T03:47:36;14.50;;;7.87;;
67272;SDS011;54190;49.770;9.250;2024-03-02T03:50:02;13.43;;;7.93;;
67272;SDS011;54190;49.770;9.250;2024-03-02T03:52:30;12.00;;;7.60;;
67272;SDS011;54190;49.770;9.250;2024-03-02T03:54:56;12.80;;;7.07;;
67272;SDS011;54190;49.770;9.250;2024-03-02T03:57:21;18.47;;;6.60;;
67272;SDS011;54190;49.770;9.250;2024-03-02T03:59:47;10.67;;;6.60;;
67272;SDS011;54190;49.770;9.250;2024-03-02T04:02:13;9.00;;;6.10;;
67272;SDS011;54190;49.770;9.250;2024-03-02T04:04:38;12.90;;;7.43;;
67272;SDS011;54190;49.770;9.250;2024-03-02T04:07:04;17.23;;;7.83;;
67272;SDS011;54190;49.770;9.250;2024-03-02T04:09:29;16.60;;;9.10;;
67272;SDS011;54190;49.770;9.250;2024-03-02T04:11:55;15.10;;;7.90;;
67272;SDS011;54190;49.770;9.250;2024-03-02T04:14:21;15.23;;;8.37;;
67272;SDS011;54190;49.770;9.250;2024-03-02T04:16:46;13.37;;;8.03;;
67272;SDS011;54190;49.770;9.250;2024-03-02T04:19:12;14.93;;;8.83;;
67272;SDS011;54190;49.770;9.250;2024-03-02T04:21:37;14.30;;;7.83;;
67272;SDS011;54190;49.770;9.250;2024-03-02T04:24:03;12.40;;;6.63;;
67272;SDS011;54190;49.770;9.250;2024-03-02T04:26:29;10.63;;;5.87;;
67272;SDS011;54190;49.770;9.250;2024-03-02T04:28:54;34.83;;;6.80;;
67272;SDS011;54190;49.770;9.250;2024-03-02T04:31:20;8.60;;;5.37;;
67272;SDS011;54190;49.770;9.250;2024-03-02T04:33:46;13.33;;;7.03;;
67272;SDS011;54190;49.770;9.250;2024-03-02T04:36:12;10.00;;;6.17;;
67272;SDS011;54190;49.770;9.250;2024-03-02T04:38:38;9.03;;;5.50;;
67272;SDS011;54190;49.770;9.250;2024-03-02T04:41:04;14.00;;;7.03;;
67272;SDS011;54190;49.770;9.250;2024-03-02T04:43:31;15.83;;;6.73;;
67272;SDS011;54190;49.770;9.250;2024-03-02T04:45:57;11.80;;;6.33;;
67272;SDS011;54190;49.770;9.250;2024-03-02T04:48:24;10.27;;;6.20;;
67272;SDS011;54190;49.770;9.250;2024-03-02T04:50:49;12.23;;;6.90;;
67272;SDS011;54190;49.770;9.250;2024-03-02T04:53:15;13.07;;;7.83;;
67272;SDS011;54190;49.770;9.250;2024-03-02T04:55:41;15.03;;;7.80;;
67272;SDS011;54190;49.770;9.250;2024-03-02T04:58:06;14.47;;;7.30;;
67272;SDS011;54190;49.770;9.250;2024-03-02T05:00:32;17.33;;;7.97;;
67272;SDS011;54190;49.770;9.250;2024-03-02T05:02:58;12.77;;;7.77;;
67272;SDS011;54190;49.770;9.250;2024-03-02T05:05:23;16.47;;;9.00;;
67272;SDS011;54190;49.770;9.250;2024-03-02T05:07:49;21.23;;;9.30;;
67272;SDS011;54190;49.770;9.250;2024-03-02T05:10:15;14.67;;;8.00;;
67272;SDS011;54190;49.770;9.250;2024-03-02T05:12:41;15.10;;;8.80;;
67272;SDS011;54190;49.770;9.250;2024-03-02T05:15:09;16.20;;;8.27;;
67272;SDS011;54190;49.770;9.250;2024-03-02T05:17:36;13.50;;;7.33;;
67272;SDS011;54190;49.770;9.250;2024-03-02T05:20:06;11.33;;;6.80;;
67272;SDS011;54190;49.770;9.250;2024-03-02T05:22:35;12.13;;;7.40;;
67272;SDS011;54190;49.770;9.250;2024-03-02T05:25:02;14.47;;;7.43;;
67272;SDS011;54190;49.770;9.250;2024-03-02T05:27:31;13.13;;;7.50;;
67272;SDS011;54190;49.770;9.250;2024-03-02T05:30:00;11.47;;;6.63;;
67272;SDS011;54190;49.770;9.250;2024-03-02T05:32:26;11.13;;;6.70;;
67272;SDS011;54190;49.770;9.250;2024-03-02T05:34:51;12.43;;;6.53;;
67272;SDS011;54190;49.770;9.250;2024-03-02T05:37:17;10.67;;;6.50;;
67272;SDS011;54190;49.770;9.250;2024-03-02T05:39:43;10.80;;;6.60;;
67272;SDS011;54190;49.770;9.250;2024-03-02T05:42:09;10.57;;;5.87;;
67272;SDS011;54190;49.770;9.250;2024-03-02T05:44:35;9.60;;;5.77;;
67272;SDS011;54190;49.770;9.250;2024-03-02T05:47:01;11.97;;;6.30;;
67272;SDS011;54190;49.770;9.250;2024-03-02T05:49:28;12.47;;;7.00;;
67272;SDS011;54190;49.770;9.250;2024-03-02T05:51:54;12.13;;;7.43;;
67272;SDS011;54190;49.770;9.250;2024-03-02T05:54:19;13.43;;;7.60;;
67272;SDS011;54190;49.770;9.250;2024-03-02T05:56:45;12.20;;;7.07;;
67272;SDS011;54190;49.770;9.250;2024-03-02T05:59:10;14.37;;;7.80;;
67272;SDS011;54190;49.770;9.250;2024-03-02T06:01:42;15.57;;;8.47;;
67272;SDS011;54190;49.770;9.250;2024-03-02T06:04:09;29.83;;;14.20;;
67272;SDS011;54190;49.770;9.250;2024-03-02T06:06:38;29.37;;;15.43;;
67272;SDS011;54190;49.770;9.250;2024-03-02T06:09:05;21.40;;;10.97;;
67272;SDS011;54190;49.770;9.250;2024-03-02T06:11:33;19.53;;;9.93;;
67272;SDS011;54190;49.770;9.250;2024-03-02T06:13:59;16.93;;;9.50;;
67272;SDS011;54190;49.770;9.250;2024-03-02T06:16:25;16.60;;;9.10;;
67272;SDS011;54190;49.770;9.250;2024-03-02T06:18:50;15.87;;;8.43;;
67272;SDS011;54190;49.770;9.250;2024-03-02T06:21:16;14.40;;;7.90;;
67272;SDS011;54190;49.770;9.250;2024-03-02T06:23:43;12.80;;;7.70;;
67272;SDS011;54190;49.770;9.250;2024-03-02T06:26:09;12.47;;;6.80;;
67272;SDS011;54190;49.770;9.250;2024-03-02T06:28:34;14.97;;;7.90;;
67272;SDS011;54190;49.770;9.250;2024-03-02T06:31:01;13.67;;;6.60;;
67272;SDS011;54190;49.770;9.250;2024-03-02T06:33:27;12.83;;;6.83;;
67272;SDS011;54190;49.770;9.250;2024-03-02T06:35:53;13.83;;;6.20;;
67272;SDS011;54190;49.770;9.250;2024-03-02T06:38:19;11.53;;;7.07;;
67272;SDS011;54190;49.770;9.250;2024-03-02T06:40:45;14.60;;;7.50;;
67272;SDS011;54190;49.770;9.250;2024-03-02T06:43:10;11.30;;;6.50;;
67272;SDS011;54190;49.770;9.250;2024-03-02T06:45:36;10.47;;;7.20;;
67272;SDS011;54190;49.770;9.250;2024-03-02T06:48:02;17.20;;;7.00;;
67272;SDS011;54190;49.770;9.250;2024-03-02T06:50:27;15.33;;;7.70;;
67272;SDS011;54190;49.770;9.250;2024-03-02T06:52:53;16.23;;;7.23;;
67272;SDS011;54190;49.770;9.250;2024-03-02T06:55:21;15.30;;;8.80;;
67272;SDS011;54190;49.770;9.250;2024-03-02T06:57:47;18.60;;;8.90;;
67272;SDS011;54190;49.770;9.250;2024-03-02T07:00:13;17.80;;;7.90;;
67272;SDS011;54190;49.770;9.250;2024-03-02T07:02:39;15.30;;;7.70;;
67272;SDS011;54190;49.770;9.250;2024-03-02T07:05:06;15.17;;;8.00;;
67272;SDS011;54190;49.770;9.250;2024-03-02T07:07:33;11.60;;;6.60;;
67272;SDS011;54190;49.770;9.250;2024-03-02T07:10:00;15.57;;;8.77;;
67272;SDS011;54190;49.770;9.250;2024-03-02T07:12:26;16.00;;;7.53;;
67272;SDS011;54190;49.770;9.250;2024-03-02T07:14:51;13.53;;;7.40;;
67272;SDS011;54190;49.770;9.250;2024-03-02T07:17:41;14.87;;;8.03;;
67272;SDS011;54190;49.770;9.250;2024-03-02T07:20:06;18.17;;;7.77;;
67272;SDS011;54190;49.770;9.250;2024-03-02T07:22:32;11.93;;;7.77;;
67272;SDS011;54190;49.770;9.250;2024-03-02T07:24:58;15.73;;;7.63;;
67272;SDS011;54190;49.770;9.250;2024-03-02T07:27:24;16.53;;;8.00;;
67272;SDS011;54190;49.770;9.250;2024-03-02T07:29:50;12.90;;;6.90;;
67272;SDS011;54190;49.770;9.250;2024-03-02T07:32:15;17.77;;;9.60;;
67272;SDS011;54190;49.770;9.250;2024-03-02T07:34:41;28.33;;;13.27;;
67272;SDS011;54190;49.770;9.250;2024-03-02T07:37:06;18.97;;;8.70;;
67272;SDS011;54190;49.770;9.250;2024-03-02T07:39:32;22.37;;;10.60;;
67272;SDS011;54190;49.770;9.250;2024-03-02T07:41:58;18.83;;;10.17;;
67272;SDS011;54190;49.770;9.250;2024-03-02T07:44:25;35.13;;;11.93;;
67272;SDS011;54190;49.770;9.250;2024-03-02T07:46:50;17.40;;;10.27;;
67272;SDS011;54190;49.770;9.250;2024-03-02T07:49:16;18.40;;;10.63;;
67272;SDS011;54190;49.770;9.250;2024-03-02T07:51:42;32.20;;;13.57;;
67272;SDS011;54190;49.770;9.250;2024-03-02T07:54:08;16.73;;;9.10;;
67272;SDS011;54190;49.770;9.250;2024-03-02T07:56:34;17.10;;;8.43;;
67272;SDS011;54190;49.770;9.250;2024-03-02T07:59:00;15.00;;;8.10;;
67272;SDS011;54190;49.770;9.250;2024-03-02T08:01:27;15.50;;;8.57;;
67272;SDS011;54190;49.770;9.250;2024-03-02T08:03:55;20.53;;;10.80;;
67272;SDS011;54190;49.770;9.250;2024-03-02T08:06:25;18.30;;;9.37;;
67272;SDS011;54190;49.770;9.250;2024-03-02T08:08:59;13.37;;;7.93;;
67272;SDS011;54190;49.770;9.250;2024-03-02T08:11:26;16.90;;;8.70;;
67272;SDS011;54190;49.770;9.250;2024-03-02T08:13:52;14.70;;;8.10;;
67272;SDS011;54190;49.770;9.250;2024-03-02T08:16:20;18.00;;;9.17;;
67272;SDS011;54190;49.770;9.250;2024-03-02T08:18:48;21.27;;;9.23;;
67272;SDS011;54190;49.770;9.250;2024-03-02T08:21:14;19.00;;;10.73;;
67272;SDS011;54190;49.770;9.250;2024-03-02T08:23:40;20.00;;;10.37;;
67272;SDS011;54190;49.770;9.250;2024-03-02T08:26:07;19.30;;;9.93;;
67272;SDS011;54190;49.770;9.250;2024-03-02T08:28:33;20.43;;;11.47;;
67272;SDS011;54190;49.770;9.250;2024-03-02T08:30:59;17.03;;;8.00;;
67272;SDS011;54190;49.770;9.250;2024-03-02T08:33:24;17.67;;;8.40;;
67272;SDS011;54190;49.770;9.250;2024-03-02T08:35:50;18.60;;;9.80;;
67272;SDS011;54190;49.770;9.250;2024-03-02T08:38:16;22.23;;;11.77;;
67272;SDS011;54190;49.770;9.250;2024-03-02T08:40:42;27.13;;;12.23;;
67272;SDS011;54190;49.770;9.250;2024-03-02T08:43:08;23.80;;;12.47;;
67272;SDS011;54190;49.770;9.250;2024-03-02T08:45:34;19.53;;;10.17;;
67272;SDS011;54190;49.770;9.250;2024-03-02T08:48:00;18.00;;;8.43;;
67272;SDS011;54190;49.770;9.250;2024-03-02T08:50:25;14.77;;;8.63;;
67272;SDS011;54190;49.770;9.250;2024-03-02T08:52:51;19.07;;;10.33;;
67272;SDS011;54190;49.770;9.250;2024-03-02T08:55:16;17.13;;;9.00;;
67272;SDS011;54190;49.770;9.250;2024-03-02T08:57:42;15.13;;;8.33;;
67272;SDS011;54190;49.770;9.250;2024-03-02T09:00:08;19.03;;;9.60;;
67272;SDS011;54190;49.770;9.250;2024-03-02T09:02:34;20.50;;;10.23;;
67272;SDS011;54190;49.770;9.250;2024-03-02T09:05:00;18.53;;;10.03;;
67272;SDS011;54190;49.770;9.250;2024-03-02T09:07:26;17.07;;;8.67;;
67272;SDS011;54190;49.770;9.250;2024-03-02T09:09:52;20.77;;;9.70;;
67272;SDS011;54190;49.770;9.250;2024-03-02T09:12:18;17.90;;;10.03;;
67272;SDS011;54190;49.770;9.250;2024-03-02T09:14:44;19.17;;;9.80;;
67272;SDS011;54190;49.770;9.250;2024-03-02T09:17:11;14.00;;;8.97;;
67272;SDS011;54190;49.770;9.250;2024-03-02T09:19:37;13.90;;;7.43;;
67272;SDS011;54190;49.770;9.250;2024-03-02T09:22:04;17.33;;;8.90;;
67272;SDS011;54190;49.770;9.250;2024-03-02T09:24:31;12.80;;;7.23;;
67272;SDS011;54190;49.770;9.250;2024-03-02T09:26:58;15.50;;;7.03;;
67272;SDS011;54190;49.770;9.250;2024-03-02T09:29:24;14.43;;;6.73;;
67272;SDS011;54190;49.770;9.250;2024-03-02T09:31:49;13.63;;;6.87;;
67272;SDS011;54190;49.770;9.250;2024-03-02T09:34:16;11.27;;;6.40;;
67272;SDS011;54190;49.770;9.250;2024-03-02T09:36:41;12.83;;;6.50;;
67272;SDS011;54190;49.770;9.250;2024-03-02T09:39:07;11.70;;;5.93;;
67272;SDS011;54190;49.770;9.250;2024-03-02T09:41:34;12.20;;;7.17;;
67272;SDS011;54190;49.770;9.250;2024-03-02T09:44:04;14.53;;;7.60;;
67272;SDS011;54190;49.770;9.250;2024-03-02T09:46:30;12.50;;;6.37;;
67272;SDS011;54190;49.770;9.250;2024-03-02T09:48:56;12.80;;;6.30;;
67272;SDS011;54190;49.770;9.250;2024-03-02T09:51:22;8.30;;;5.50;;
67272;SDS011;54190;49.770;9.250;2024-03-02T09:53:48;11.30;;;5.87;;
67272;SDS011;54190;49.770;9.250;2024-03-02T09:56:15;9.50;;;5.50;;
67272;SDS011;54190;49.770;9.250;2024-03-02T09:58:44;11.00;;;6.17;;
67272;SDS011;54190;49.770;9.250;2024-03-02T10:01:09;8.97;;;5.60;;
67272;SDS011;54190;49.770;9.250;2024-03-02T10:03:36;12.40;;;6.00;;
67272;SDS011;54190;49.770;9.250;2024-03-02T10:06:18;9.60;;;5.60;;
67272;SDS011;54190;49.770;9.250;2024-03-02T10:08:47;9.03;;;4.97;;
67272;SDS011;54190;49.770;9.250;2024-03-02T10:11:32;9.83;;;5.17;;
67272;SDS011;54190;49.770;9.250;2024-03-02T10:16:33;7.07;;;4.73;;
67272;SDS011;54190;49.770;9.250;2024-03-02T10:19:21;10.13;;;5.50;;
67272;SDS011;54190;49.770;9.250;2024-03-02T10:21:52;7.97;;;4.60;;
67272;SDS011;54190;49.770;9.250;2024-03-02T10:24:21;8.33;;;4.83;;
67272;SDS011;54190;49.770;9.250;2024-03-02T10:26:47;6.43;;;4.10;;
67272;SDS011;54190;49.770;9.250;2024-03-02T10:29:14;7.87;;;4.40;;
67272;SDS011;54190;49.770;9.250;2024-03-02T10:31:41;9.33;;;4.60;;
67272;SDS011;54190;49.770;9.250;2024-03-02T10:34:09;8.80;;;5.67;;
67272;SDS011;54190;49.770;9.250;2024-03-02T10:36:36;6.30;;;3.73;;
67272;SDS011;54190;49.770;9.250;2024-03-02T10:39:06;7.50;;;4.67;;
67272;SDS011;54190;49.770;9.250;2024-03-02T10:41:33;8.40;;;4.77;;
67272;SDS011;54190;49.770;9.250;2024-03-02T10:44:01;7.63;;;4.50;;
67272;SDS011;54190;49.770;9.250;2024-03-02T10:46:37;8.63;;;4.30;;
67272;SDS011;54190;49.770;9.250;2024-03-02T10:49:04;8.63;;;4.73;;
67272;SDS011;54190;49.770;9.250;2024-03-02T10:51:31;9.17;;;5.00;;
67272;SDS011;54190;49.770;9.250;2024-03-02T10:53:59;9.07;;;5.20;;
67272;SDS011;54190;49.770;9.250;2024-03-02T10:56:41;8.50;;;4.33;;
67272;SDS011;54190;49.770;9.250;2024-03-02T11:01:50;7.60;;;4.77;;
67272;SDS011;54190;49.770;9.250;2024-03-02T11:04:18;7.00;;;4.33;;
67272;SDS011;54190;49.770;9.250;2024-03-02T11:06:48;8.03;;;4.60;;
67272;SDS011;54190;49.770;9.250;2024-03-02T11:09:14;6.30;;;3.70;;
67272;SDS011;54190;49.770;9.250;2024-03-02T11:11:43;9.50;;;5.30;;
67272;SDS011;54190;49.770;9.250;2024-03-02T11:14:12;8.10;;;4.87;;
67272;SDS011;54190;49.770;9.250;2024-03-02T11:16:41;6.70;;;3.97;;
67272;SDS011;54190;49.770;9.250;2024-03-02T11:19:10;9.53;;;5.03;;
67272;SDS011;54190;49.770;9.250;2024-03-02T11:21:37;7.73;;;4.63;;
67272;SDS011;54190;49.770;9.250;2024-03-02T11:27:00;7.53;;;4.67;;
67272;SDS011;54190;49.770;9.250;2024-03-02T11:32:02;5.70;;;3.70;;
67272;SDS011;54190;49.770;9.250;2024-03-02T11:34:31;5.30;;;3.20;;
67272;SDS011;54190;49.770;9.250;2024-03-02T11:36:59;6.37;;;3.70;;
67272;SDS011;54190;49.770;9.250;2024-03-02T11:39:29;5.50;;;3.53;;
67272;SDS011;54190;49.770;9.250;2024-03-02T11:41:55;7.07;;;4.10;;
67272;SDS011;54190;49.770;9.250;2024-03-02T11:44:22;7.00;;;4.60;;
67272;SDS011;54190;49.770;9.250;2024-03-02T11:49:36;6.97;;;4.30;;
67272;SDS011;54190;49.770;9.250;2024-03-02T11:52:02;5.13;;;3.10;;
67272;SDS011;54190;49.770;9.250;2024-03-02T11:54:30;7.17;;;4.47;;
67272;SDS011;54190;49.770;9.250;2024-03-02T11:57:04;7.10;;;3.80;;
67272;SDS011;54190;49.770;9.250;2024-03-02T11:59:30;6.50;;;3.30;;
67272;SDS011;54190;49.770;9.250;2024-03-02T12:01:57;7.30;;;4.00;;
67272;SDS011;54190;49.770;9.250;2024-03-02T12:04:24;6.60;;;4.20;;
67272;SDS011;54190;49.770;9.250;2024-03-02T12:06:58;8.23;;;4.80;;
67272;SDS011;54190;49.770;9.250;2024-03-02T12:09:28;6.00;;;4.00;;
67272;SDS011;54190;49.770;9.250;2024-03-02T12:14:33;6.53;;;4.17;;
67272;SDS011;54190;49.770;9.250;2024-03-02T12:16:59;6.47;;;3.90;;
67272;SDS011;54190;49.770;9.250;2024-03-02T12:19:26;6.70;;;3.83;;
67272;SDS011;54190;49.770;9.250;2024-03-02T12:21:58;5.70;;;4.07;;
67272;SDS011;54190;49.770;9.250;2024-03-02T12:24:29;5.97;;;4.00;;
67272;SDS011;54190;49.770;9.250;2024-03-02T12:26:55;4.70;;;3.43;;
67272;SDS011;54190;49.770;9.250;2024-03-02T12:29:22;9.37;;;4.83;;
67272;SDS011;54190;49.770;9.250;2024-03-02T12:31:49;6.50;;;4.23;;
67272;SDS011;54190;49.770;9.250;2024-03-02T12:34:18;8.30;;;4.37;;
67272;SDS011;54190;49.770;9.250;2024-03-02T12:36:45;6.20;;;3.80;;
67272;SDS011;54190;49.770;9.250;2024-03-02T12:39:15;6.47;;;4.13;;
67272;SDS011;54190;49.770;9.250;2024-03-02T12:41:41;8.87;;;4.60;;
67272;SDS011;54190;49.770;9.250;2024-03-02T12:44:07;6.63;;;4.00;;
67272;SDS011;54190;49.770;9.250;2024-03-02T12:46:33;5.00;;;3.10;;
67272;SDS011;54190;49.770;9.250;2024-03-02T12:49:11;5.97;;;3.80;;
67272;SDS011;54190;49.770;9.250;2024-03-02T12:51:38;5.10;;;3.30;;
67272;SDS011;54190;49.770;9.250;2024-03-02T12:54:10;5.50;;;3.67;;
67272;SDS011;54190;49.770;9.250;2024-03-02T12:56:40;5.37;;;3.67;;
67272;SDS011;54190;49.770;9.250;2024-03-02T12:59:16;6.00;;;3.50;;
67272;SDS011;54190;49.770;9.250;2024-03-02T13:01:55;6.33;;;3.73;;
67272;SDS011;54190;49.770;9.250;2024-03-02T13:06:54;5.03;;;3.30;;
67272;SDS011;54190;49.770;9.250;2024-03-02T13:09:22;5.13;;;2.90;;
67272;SDS011;54190;49.770;9.250;2024-03-02T13:11:49;5.30;;;3.20;;
67272;SDS011;54190;49.770;9.250;2024-03-02T13:14:15;5.30;;;3.60;;
67272;SDS011;54190;49.770;9.250;2024-03-02T13:16:40;4.50;;;2.90;;
67272;SDS011;54190;49.770;9.250;2024-03-02T13:19:07;5.10;;;3.00;;
67272;SDS011;54190;49.770;9.250;2024-03-02T13:21:33;5.40;;;3.50;;
67272;SDS011;54190;49.770;9.250;2024-03-02T13:23:59;6.10;;;3.67;;
67272;SDS011;54190;49.770;9.250;2024-03-02T13:26:26;5.27;;;3.00;;
67272;SDS011;54190;49.770;9.250;2024-03-02T13:28:52;4.60;;;3.10;;
67272;SDS011;54190;49.770;9.250;2024-03-02T13:31:18;6.30;;;3.90;;
67272;SDS011;54190;49.770;9.250;2024-03-02T13:33:44;5.67;;;3.50;;
67272;SDS011;54190;49.770;9.250;2024-03-02T13:36:09;6.30;;;3.60;;
67272;SDS011;54190;49.770;9.250;2024-03-02T13:38:35;5.47;;;3.00;;
67272;SDS011;54190;49.770;9.250;2024-03-02T13:41:01;4.30;;;2.90;;
67272;SDS011;54190;49.770;9.250;2024-03-02T13:43:27;5.77;;;3.20;;
67272;SDS011;54190;49.770;9.250;2024-03-02T13:45:53;5.70;;;3.40;;
67272;SDS011;54190;49.770;9.250;2024-03-02T13:48:19;5.90;;;3.13;;
67272;SDS011;54190;49.770;9.250;2024-03-02T13:50:45;3.80;;;2.87;;
67272;SDS011;54190;49.770;9.250;2024-03-02T13:53:11;4.87;;;2.90;;
67272;SDS011;54190;49.770;9.250;2024-03-02T13:55:37;6.20;;;3.23;;
67272;SDS011;54190;49.770;9.250;2024-03-02T13:58:03;4.30;;;3.00;;
67272;SDS011;54190;49.770;9.250;2024-03-02T14:00:29;5.77;;;3.40;;
67272;SDS011;54190;49.770;9.250;2024-03-02T14:02:55;6.07;;;3.57;;
67272;SDS011;54190;49.770;9.250;2024-03-02T14:05:21;5.57;;;3.27;;
67272;SDS011;54190;49.770;9.250;2024-03-02T14:07:46;5.83;;;3.70;;
67272;SDS011;54190;49.770;9.250;2024-03-02T14:10:12;5.40;;;3.90;;
67272;SDS011;54190;49.770;9.250;2024-03-02T14:12:39;6.90;;;3.40;;
67272;SDS011;54190;49.770;9.250;2024-03-02T14:15:05;5.90;;;4.23;;
67272;SDS011;54190;49.770;9.250;2024-03-02T14:17:32;6.63;;;4.50;;
67272;SDS011;54190;49.770;9.250;2024-03-02T14:19:57;5.10;;;3.20;;
67272;SDS011;54190;49.770;9.250;2024-03-02T14:22:26;6.10;;;3.80;;
67272;SDS011;54190;49.770;9.250;2024-03-02T14:24:52;5.37;;;3.53;;
67272;SDS011;54190;49.770;9.250;2024-03-02T14:27:18;6.40;;;4.03;;
67272;SDS011;54190;49.770;9.250;2024-03-02T14:29:44;5.70;;;3.37;;
67272;SDS011;54190;49.770;9.250;2024-03-02T14:32:09;6.00;;;3.70;;
67272;SDS011;54190;49.770;9.250;2024-03-02T14:34:35;5.93;;;3.63;;
67272;SDS011;54190;49.770;9.250;2024-03-02T14:37:01;5.53;;;3.23;;
67272;SDS011;54190;49.770;9.250;2024-03-02T14:39:27;5.07;;;3.00;;
67272;SDS011;54190;49.770;9.250;2024-03-02T14:41:54;4.63;;;2.97;;
67272;SDS011;54190;49.770;9.250;2024-03-02T14:44:20;5.10;;;3.20;;
67272;SDS011;54190;49.770;9.250;2024-03-02T14:46:49;4.70;;;2.97;;
67272;SDS011;54190;49.770;9.250;2024-03-02T14:49:15;4.53;;;2.60;;
67272;SDS011;54190;49.770;9.250;2024-03-02T14:51:41;5.10;;;3.10;;
67272;SDS011;54190;49.770;9.250;2024-03-02T14:54:06;3.50;;;2.53;;
67272;SDS011;54190;49.770;9.250;2024-03-02T14:56:32;5.00;;;3.00;;